METAR stanice u blizini

 

LYBE - Beograd / Surčin, Srbija
Ažurirano: 02/04/2020 13:00
Vedro
Vedro
 Pravac vetra I
Vetar: I 17 km/h
Temperatura: 10°C
Osećaj hladnoće: 8°C
Tačka rose: -4°C
Vlažnost: 37%
Pritisak: 1016 hPa
Pregled: Vedro
Vidljivost: greater than 10 km
2020/04/02 11:00 LYBE 021100Z 08009KT 040V120 CAVOK 10/M04 Q1016 NOSIG
LYBT - Beograd / Batajnica, Srbija
Ažurirano: 02/04/2020 13:00
Few Clouds
Few Clouds
 Pravac vetra ISI
Vetar: ISI 17 km/h
Temperatura: 10°C
Osećaj hladnoće: 8°C
Tačka rose: -6°C
Vlažnost: 32%
Pritisak: 1017 hPa
Oblaci: Few Clouds
Vidljivost: 10 km
Cloud details: Few Clouds 1219 m
2020/04/02 11:00 LYBT 021100Z 07009KT 020V110 9999 FEW040 10/M06 Q1017 NOSIG
LYVR - Vršac, Srbija
Ažurirano: 02/04/2020 13:00
Vedro
Vedro
 Pravac vetra JJI
Vetar: JJI 13 km/h
Temperatura: 10°C
Osećaj hladnoće: 8°C
Tačka rose: -3°C
Vlažnost: 40%
Pritisak: 1017 hPa
Pregled: Vedro
Vidljivost: greater than 10 km
2020/04/02 11:00 LYVR 021100Z 15007KT 100V270 CAVOK 10/M03 Q1017 NOSIG
 
LYKV - Lađevci, Srbija
Ažurirano: 02/04/2020 13:00
Mostly Cloudy
Mostly Cloudy
 Pravac vetra JJI
Vetar: JJI 15 km/h
Temperatura: 6°C
Osećaj hladnoće: 3°C
Tačka rose: 3°C
Vlažnost: 81%
Pritisak: 1017 hPa
Oblaci: Mostly Cloudy
Vidljivost: 10 km
Cloud details: Mostly Cloudy 1006 m
2020/04/02 11:00 LYKV 021100Z 15008KT 100V190 9999 BKN033 06/03 Q1017 NOSIG
LYNI - Niš, Srbija
Ažurirano: 02/04/2020 13:00
Partly Cloudy
Partly Cloudy
 Pravac vetra J
Vetar: J 13 km/h
Temperatura: 6°C
Osećaj hladnoće: 3°C
Tačka rose: 0°C
Vlažnost: 66%
Pritisak: 1017 hPa
Oblaci: Partly Cloudy
Vidljivost: 10 km
Cloud details: Few Clouds 914 m
Partly Cloudy 1219 m
2020/04/02 11:00 LYNI 021100Z 18007KT 140V230 9999 FEW030 SCT040 06/M00 Q1017 NOSIG
BKPR - Priština, Srbija
Ažurirano: 02/04/2020 13:30
Partly Cloudy
Partly Cloudy
 Pravac vetra varies
Vetar: varies 2 km/h
Temperatura: 5°C
Tačka rose: -4°C
Vlažnost: 53%
Pritisak: 1015 hPa
Oblaci: Partly Cloudy
Vidljivost: 10 km
Cloud details: Few Clouds 914 m
Partly Cloudy 1829 m
2020/04/02 11:30 BKPR 021130Z VRB01KT 9999 FEW030 SCT060 05/M04 Q1015 NOSIG RMK 17690395
 
LHPP - Pecs / Pogany, Hungary
Ažurirano: 02/04/2020 12:45
Vedro
Vedro
 Pravac vetra JI
Vetar: JI 19 km/h
Temperatura: 9°C
Osećaj hladnoće: 6°C
Tačka rose: -3°C
Vlažnost: 43%
Pritisak: 1016 hPa
Pregled: Vedro
Vidljivost: greater than 10 km
2020/04/02 10:45 LHPP 021045Z 14010KT CAVOK 09/M03 Q1016
LHUD - Szeged, Hungary
Ažurirano: 04/07/2019 01:45
NOT Current
Vedro
Vedro
 Pravac vetra S
Vetar: S 7 km/h
Temperatura: 18°C
Tačka rose: 13°C
Vlažnost: 73%
Pritisak: 1019 hPa
Pregled: Vedro
Vidljivost: greater than 10 km
2019/07/03 23:45 LHUD 032345Z 35004KT CAVOK 18/13 Q1019
LRTR - Timisoara, Romania
Ažurirano: 02/04/2020 13:00
Vedro
Vedro
 Pravac vetra varies
Vetar: varies 4 km/h
Temperatura: 9°C
Tačka rose: -5°C
Vlažnost: 37%
Pritisak: 1017 hPa
Pregled: Vedro
Vidljivost: greater than 10 km
2020/04/02 11:00 LRTR 021100Z VRB02KT CAVOK 09/M05 Q1017 NOSIG
 
LRCV - Craiova, Romania
Ažurirano: 02/04/2020 13:00
Vedro
Vedro
 Pravac vetra I
Vetar: I 11 km/h
Temperatura: 7°C
Osećaj hladnoće: 5°C
Tačka rose: -6°C
Vlažnost: 39%
Pritisak: 1017 hPa
Pregled: Vedro
Vidljivost: greater than 10 km
2020/04/02 11:00 LRCV 021100Z 08006KT 050V120 CAVOK 07/M06 Q1017
LBSF - Sofia, Bulgaria
Ažurirano: 02/04/2020 13:00
Oblačno
Oblačno
 Pravac vetra varies
Vetar: varies 4 km/h
Temperatura: 3°C
Tačka rose: -3°C
Vlažnost: 65%
Pritisak: 1015 hPa
Oblaci: Oblačno
Vidljivost: 10 km
Cloud details: Oblačno 975 m
2020/04/02 11:00 LBSF 021100Z VRB02KT 9999 OVC032 03/M03 Q1015 R99/29//95 NOSIG
LWSK - Skoplje, Makedonija
Ažurirano: 02/04/2020 13:00
Vedro
Vedro
 Pravac vetra S
Vetar: S 7 km/h
Temperatura: 6°C
Osećaj hladnoće: 4°C
Tačka rose: -2°C
Vlažnost: 57%
Pritisak: 1016 hPa
Pregled: Vedro
Vidljivost: greater than 10 km
2020/04/02 11:00 LWSK 021100Z 35004KT CAVOK 06/M02 Q1016 R99/1///95 NOSIG
 
LYPG - Podgorica, Crna Gora
Ažurirano: 02/04/2020 13:00
Vedro
Vedro
 Pravac vetra JJI
Vetar: JJI 6 km/h
Temperatura: 11°C
Tačka rose: -2°C
Vlažnost: 41%
Pritisak: 1014 hPa
Pregled: Vedro
Vidljivost: greater than 10 km
2020/04/02 11:00 LYPG 021100Z 15003KT 080V250 CAVOK 11/M02 Q1014 NOSIG
LQSA - Sarajevo, Bosna i Hercegovina
Ažurirano: 02/04/2020 13:00
Vedro
Vedro
 Pravac vetra Z
Vetar: Z 9 km/h
Temperatura: 8°C
Osećaj hladnoće: 6°C
Tačka rose: -2°C
Vlažnost: 50%
Pritisak: 1013 hPa
Pregled: Vedro
Vidljivost: greater than 10 km
2020/04/02 11:00 LQSA 021100Z 26005KT 210V290 CAVOK 08/M02 Q1013 NOSIG
LDOS - Osijek, Hrvatksa
Ažurirano: 02/04/2020 13:00
Few Clouds
Few Clouds
 Pravac vetra IJI
Vetar: IJI 13 km/h
Temperatura: 9°C
Osećaj hladnoće: 7°C
Tačka rose: -2°C
Vlažnost: 46%
Pritisak: 1016 hPa
Oblaci: Few Clouds
Vidljivost: 10 km
Cloud details: Few Clouds 914 m
2020/04/02 11:00 LDOS 021100Z 12007KT 090V190 9999 FEW030 09/M02 Q1016